This is the latest recevied weather packets stored in our database for station/object W3BRL. If no packets are shown the sender has not sent any weather packets the latest 10 day(s).
| Time | Temp. | Humidity | Pressure | Rain* | Wind** | Luminosity | Snow |
|---|---|---|---|---|---|---|---|
| 1777759149 | 5.56° C | 67% | 1012.8 hPa | 0 mm | - | 114 W/m² | - |
| 1777758543 | 6.11° C | 68% | 1012.8 hPa | 0 mm | - | 151 W/m² | - |
| 1777758239 | 6.11° C | 67% | 1012.6 hPa | 0 mm | - | 140 W/m² | - |
| 1777757937 | 6.11° C | 67% | 1012.9 hPa | 0 mm | - | 187 W/m² | - |
| 1777757634 | 6.11° C | 69% | 1012.5 hPa | 0 mm | - | 198 W/m² | - |
| 1777757333 | 6.11° C | 68% | 1012.6 hPa | 0 mm | - | 193 W/m² | - |
| 1777757031 | 6.11° C | 69% | 1012.6 hPa | 0 mm | - | 189 W/m² | - |
| 1777756423 | 6.11° C | 70% | 1012.5 hPa | 0 mm | - | 249 W/m² | - |
| 1777756121 | 6.11° C | 70% | 1012.6 hPa | 0 mm | - | 243 W/m² | - |
| 1777755818 | 5.56° C | 70% | 1012.5 hPa | 0 mm | - | 213 W/m² | - |
| 1777755515 | 5.56° C | 70% | 1012.6 hPa | 0 mm | - | 167 W/m² | - |
| 1777751883 | 6.67° C | 70% | 1012.6 hPa | 0 mm | - | 268 W/m² | - |
| 1777747646 | 5.56° C | 75% | 1013 hPa | 0 mm | - | 186 W/m² | - |
| 1777744615 | 5.56° C | 88% | 1013.3 hPa | 0 mm | - | 358 W/m² | - |
| 1777743402 | 4.44° C | 92% | 1012.9 hPa | 3.05 mm | - | 467 W/m² | - |
| 1777741583 | 3.33° C | 85% | 1013.1 hPa | 3.05 mm | - | 90 W/m² | - |
| 1777741280 | 5.56° C | 81% | 1013 hPa | 3.05 mm | - | 38 W/m² | - |
| 1777740976 | 6.11° C | 82% | 1012.9 hPa | 0 mm | - | 49 W/m² | - |
| 1777740674 | 6.11° C | 83% | 1012.8 hPa | 0 mm | - | 90 W/m² | - |
| 1777740369 | 6.11° C | 81% | 1012.5 hPa | 0 mm | - | 115 W/m² | - |
| 1777739763 | 6.11° C | 83% | 1012.8 hPa | 0 mm | - | 189 W/m² | - |
| 1777739459 | 6.11° C | 83% | 1012.6 hPa | 0 mm | - | 124 W/m² | - |
| 1777739156 | 5.56° C | 84% | 1012.9 hPa | 0 mm | - | 352 W/m² | - |
| 1777738854 | 5.56° C | 84% | 1012.6 hPa | 0 mm | - | 383 W/m² | - |
| 1777738550 | 5° C | 86% | 1012.8 hPa | 0 mm | - | 328 W/m² | - |
* Rain latest hour (hover to see other rain measurements)
** Current wind speed in m/s (hover to see current wind gust speed)